createdAt,value
2018-04-23T00:00:03.735Z,0
2018-04-23T00:01:05.169Z,0
2018-04-23T00:02:06.775Z,0
2018-04-23T00:03:08.160Z,0
2018-04-23T00:04:09.562Z,0
2018-04-23T00:05:10.963Z,0
2018-04-23T00:06:12.347Z,0
2018-04-23T00:07:13.756Z,0
2018-04-23T00:08:15.155Z,0
2018-04-23T00:09:16.538Z,0
2018-04-23T00:10:17.928Z,0
2018-04-23T00:11:19.317Z,0
2018-04-23T00:12:20.711Z,0
2018-04-23T00:13:22.099Z,0
2018-04-23T00:14:23.489Z,0
2018-04-23T00:15:24.896Z,0
2018-04-23T00:16:26.307Z,0
2018-04-23T00:17:27.699Z,0
2018-04-23T00:18:29.108Z,0
2018-04-23T00:19:30.497Z,0
2018-04-23T00:20:31.889Z,0
2018-04-23T00:21:33.281Z,0
2018-04-23T00:22:34.675Z,0
2018-04-23T00:23:36.071Z,0
2018-04-23T00:24:37.464Z,0
2018-04-23T00:25:38.854Z,0
2018-04-23T00:26:40.349Z,0
2018-04-23T00:27:41.738Z,0
2018-04-23T00:28:43.130Z,0
2018-04-23T00:29:44.529Z,0
2018-04-23T00:30:45.924Z,0
2018-04-23T00:31:47.323Z,0
2018-04-23T00:32:48.703Z,0
2018-04-23T00:33:50.097Z,0
2018-04-23T00:34:51.582Z,0
2018-04-23T00:35:52.977Z,0
2018-04-23T00:36:54.419Z,0
2018-04-23T00:37:55.800Z,0
2018-04-23T00:38:57.193Z,0
2018-04-23T00:39:58.590Z,0
2018-04-23T00:40:59.978Z,0
2018-04-23T00:42:01.364Z,0
2018-04-23T00:43:02.756Z,0
2018-04-23T00:44:04.152Z,0
2018-04-23T00:45:05.641Z,0
2018-04-23T00:46:07.089Z,0
2018-04-23T00:47:08.479Z,0
2018-04-23T00:48:09.872Z,0
2018-04-23T00:49:11.265Z,0
2018-04-23T00:50:12.657Z,0
2018-04-23T00:51:14.050Z,0
2018-04-23T00:52:15.439Z,0
2018-04-23T00:53:16.883Z,0
2018-04-23T00:54:18.274Z,0
2018-04-23T00:55:19.702Z,0
2018-04-23T00:56:21.139Z,0
2018-04-23T00:57:22.531Z,0
2018-04-23T00:58:23.925Z,0
2018-04-23T00:59:25.379Z,0
2018-04-23T01:00:26.742Z,0
2018-04-23T01:01:28.135Z,0
2018-04-23T01:02:29.528Z,0
2018-04-23T01:03:30.920Z,0
2018-04-23T01:04:32.317Z,0
2018-04-23T01:05:33.708Z,0
2018-04-23T01:06:35.108Z,0
2018-04-23T01:07:36.518Z,0
2018-04-23T01:08:37.909Z,0
2018-04-23T01:09:39.307Z,0
2018-04-23T01:10:40.705Z,0
2018-04-23T01:11:42.100Z,0
2018-04-23T01:12:43.491Z,0
2018-04-23T01:13:44.907Z,0
2018-04-23T01:14:46.335Z,0
2018-04-23T01:15:47.747Z,0
2018-04-23T01:16:49.139Z,0
2018-04-23T01:17:50.524Z,0
2018-04-23T01:18:51.927Z,0
2018-04-23T01:19:53.314Z,0
2018-04-23T01:20:54.799Z,0
2018-04-23T01:21:56.192Z,0
2018-04-23T01:22:57.586Z,0
2018-04-23T01:23:58.973Z,0
2018-04-23T01:25:00.368Z,0
2018-04-23T01:26:01.763Z,0
2018-04-23T01:27:03.150Z,0
2018-04-23T01:28:04.546Z,0
2018-04-23T01:29:06.085Z,0
2018-04-23T01:30:07.515Z,0
2018-04-23T01:31:08.914Z,0
2018-04-23T01:32:10.303Z,0
2018-04-23T01:33:11.701Z,0
2018-04-23T01:34:13.140Z,0
2018-04-23T01:35:14.534Z,0
2018-04-23T01:36:15.924Z,0
2018-04-23T01:37:17.318Z,0
2018-04-23T01:38:18.708Z,0
2018-04-23T01:39:20.111Z,0
2018-04-23T01:40:21.511Z,0
2018-04-23T01:41:22.909Z,0
2018-04-23T01:42:24.296Z,0
2018-04-23T01:43:25.696Z,0
2018-04-23T01:44:27.094Z,0
2018-04-23T01:45:28.488Z,0
2018-04-23T01:46:29.879Z,0
2018-04-23T01:47:31.274Z,0
2018-04-23T01:48:32.769Z,0
2018-04-23T01:49:34.159Z,0
2018-04-23T01:50:35.547Z,0
2018-04-23T01:51:36.944Z,0
2018-04-23T01:52:38.333Z,0
2018-04-23T01:53:39.722Z,0
2018-04-23T01:54:41.115Z,0
2018-04-23T01:55:42.512Z,0
2018-04-23T01:56:43.899Z,0
2018-04-23T01:57:45.335Z,0
2018-04-23T01:58:46.727Z,0
2018-04-23T01:59:48.115Z,0
2018-04-23T02:00:49.569Z,0
2018-04-23T02:01:51.002Z,0
2018-04-23T02:02:52.404Z,0
2018-04-23T02:03:53.787Z,0
2018-04-23T02:04:55.184Z,0
2018-04-23T02:05:56.577Z,0
2018-04-23T02:06:57.964Z,0
2018-04-23T02:07:59.364Z,0
2018-04-23T02:09:00.762Z,0
2018-04-23T02:10:02.147Z,0
2018-04-23T02:11:03.538Z,0
2018-04-23T02:12:04.950Z,0
2018-04-23T02:13:06.412Z,0
2018-04-23T02:14:07.833Z,0
2018-04-23T02:15:09.253Z,0
2018-04-23T02:16:10.715Z,0
2018-04-23T02:17:12.079Z,0
2018-04-23T02:18:13.469Z,0
2018-04-23T02:19:14.857Z,0
2018-04-23T02:20:16.296Z,0
2018-04-23T02:21:17.683Z,0
2018-04-23T02:22:19.076Z,0
2018-04-23T02:23:20.472Z,0
2018-04-23T02:24:21.865Z,0
2018-04-23T02:25:23.257Z,0
2018-04-23T02:26:24.655Z,0
2018-04-23T02:27:26.043Z,0
2018-04-23T02:28:27.643Z,0
2018-04-23T02:29:29.035Z,0
2018-04-23T02:30:30.459Z,0
2018-04-23T02:31:31.851Z,0
2018-04-23T02:32:33.254Z,0
2018-04-23T02:33:34.680Z,0
2018-04-23T02:34:36.071Z,0
2018-04-23T02:35:37.465Z,0
2018-04-23T02:36:38.856Z,0
2018-04-23T02:37:40.248Z,0
2018-04-23T02:38:41.646Z,0
2018-04-23T02:39:43.041Z,0
2018-04-23T02:40:44.431Z,0
2018-04-23T02:41:45.862Z,0
2018-04-23T02:42:47.258Z,0
2018-04-23T02:43:48.647Z,0
2018-04-23T02:44:50.061Z,0
2018-04-23T02:45:51.454Z,0
2018-04-23T02:46:52.847Z,0
2018-04-23T02:47:54.238Z,0
2018-04-23T02:48:55.632Z,0
2018-04-23T02:49:57.022Z,0
2018-04-23T02:50:58.412Z,0
2018-04-23T02:51:59.810Z,0
2018-04-23T02:53:01.201Z,0
2018-04-23T02:54:02.618Z,0
2018-04-23T02:55:04.041Z,0
2018-04-23T02:56:05.479Z,0
2018-04-23T02:57:06.848Z,0
2018-04-23T02:58:08.232Z,0
2018-04-23T02:59:09.625Z,0
2018-04-23T03:00:11.055Z,0
2018-04-23T03:01:12.452Z,0
2018-04-23T03:02:13.841Z,0
2018-04-23T03:03:15.241Z,0
2018-04-23T03:04:16.636Z,0
2018-04-23T03:05:18.030Z,0
2018-04-23T03:06:19.427Z,0
2018-04-23T03:07:20.825Z,0
2018-04-23T03:08:22.222Z,0
2018-04-23T03:09:23.604Z,0
2018-04-23T03:10:24.996Z,0
2018-04-23T03:11:26.389Z,0
2018-04-23T03:12:27.781Z,0
2018-04-23T03:13:29.177Z,0
2018-04-23T03:14:30.610Z,0
2018-04-23T03:15:31.961Z,0
2018-04-23T03:16:33.352Z,0
2018-04-23T03:17:34.743Z,0
2018-04-23T03:18:36.135Z,0
2018-04-23T03:19:37.529Z,0
2018-04-23T03:20:38.921Z,0
2018-04-23T03:21:40.315Z,0
2018-04-23T03:22:41.708Z,0
2018-04-23T03:23:43.102Z,0
2018-04-23T03:24:44.499Z,0
2018-04-23T03:25:45.888Z,0
2018-04-23T03:26:47.278Z,0
2018-04-23T03:27:48.669Z,0
2018-04-23T03:28:50.066Z,0
2018-04-23T03:29:51.458Z,0
2018-04-23T03:30:52.850Z,0
2018-04-23T03:31:54.244Z,0
2018-04-23T03:32:55.630Z,0
2018-04-23T03:33:57.016Z,0
2018-04-23T03:34:58.417Z,0
2018-04-23T03:35:59.805Z,0
2018-04-23T03:37:01.197Z,0
2018-04-23T03:38:02.598Z,0
2018-04-23T03:39:03.995Z,0
2018-04-23T03:40:05.501Z,0
2018-04-23T03:41:06.809Z,0
2018-04-23T03:42:08.211Z,0
2018-04-23T03:43:09.605Z,0
2018-04-23T03:44:11.044Z,0
2018-04-23T03:45:12.386Z,0
2018-04-23T03:46:13.822Z,0
2018-04-23T03:47:15.214Z,0
2018-04-23T03:48:16.604Z,0
2018-04-23T03:49:18.005Z,0
2018-04-23T03:50:19.396Z,0
2018-04-23T03:51:20.786Z,0
2018-04-23T03:52:22.180Z,0
2018-04-23T03:53:23.567Z,0
2018-04-23T03:54:24.964Z,0
2018-04-23T03:55:26.346Z,0
2018-04-23T03:56:27.738Z,0
2018-04-23T03:57:29.131Z,0
2018-04-23T03:58:30.525Z,4
2018-04-23T03:59:31.961Z,4
2018-04-23T04:00:33.355Z,0
2018-04-23T04:01:34.747Z,0
2018-04-23T04:02:36.137Z,4
2018-04-23T04:03:37.533Z,4
2018-04-23T04:04:38.922Z,4
2018-04-23T04:05:40.315Z,4
2018-04-23T04:06:41.707Z,8
2018-04-23T04:07:43.105Z,4
2018-04-23T04:08:44.492Z,8
2018-04-23T04:09:45.887Z,8
2018-04-23T04:10:47.280Z,12
2018-04-23T04:11:48.731Z,12
2018-04-23T04:12:50.133Z,12
2018-04-23T04:13:51.526Z,12
2018-04-23T04:14:52.918Z,16
2018-04-23T04:15:54.321Z,16
2018-04-23T04:16:55.721Z,24
2018-04-23T04:17:57.109Z,24
2018-04-23T04:18:58.501Z,24
2018-04-23T04:20:00.019Z,32
2018-04-23T04:21:01.407Z,36
2018-04-23T04:22:02.801Z,36
2018-04-23T04:23:04.196Z,40
2018-04-23T04:24:05.591Z,48
2018-04-23T04:25:07.155Z,52
2018-04-23T04:26:08.566Z,56
2018-04-23T04:27:09.962Z,64
2018-04-23T04:28:11.355Z,68
2018-04-23T04:29:12.751Z,76
2018-04-23T04:30:14.139Z,84
2018-04-23T04:31:15.534Z,84
2018-04-23T04:32:16.926Z,92
2018-04-23T04:33:18.359Z,92
2018-04-23T04:34:19.786Z,100
2018-04-23T04:35:21.178Z,104
2018-04-23T04:36:22.573Z,108
2018-04-23T04:37:23.966Z,116
2018-04-23T04:38:25.374Z,124
2018-04-23T04:39:26.841Z,132
2018-04-23T04:40:28.238Z,140
2018-04-23T04:41:29.634Z,148
2018-04-23T04:42:31.024Z,152
2018-04-23T04:43:32.449Z,164
2018-04-23T04:44:33.839Z,180
2018-04-23T04:45:35.237Z,188
2018-04-23T04:46:36.630Z,200
2018-04-23T04:47:38.025Z,220
2018-04-23T04:48:39.423Z,232
2018-04-23T04:49:40.820Z,244
2018-04-23T04:50:42.210Z,260
2018-04-23T04:51:43.603Z,280
2018-04-23T04:52:44.998Z,300
2018-04-23T04:53:46.391Z,312
2018-04-23T04:54:47.840Z,328
2018-04-23T04:55:49.239Z,344
2018-04-23T04:56:50.630Z,360
2018-04-23T04:57:52.024Z,384
2018-04-23T04:58:53.422Z,396
2018-04-23T04:59:54.817Z,420
2018-04-23T05:00:56.214Z,440
2018-04-23T05:01:57.606Z,456
2018-04-23T05:02:59.003Z,476
2018-04-23T05:04:00.396Z,484
2018-04-23T05:05:01.787Z,504
2018-04-23T05:06:03.180Z,524
2018-04-23T05:07:04.575Z,540
2018-04-23T05:08:05.971Z,552
2018-04-23T05:09:07.451Z,568
2018-04-23T05:10:08.852Z,588
2018-04-23T05:11:10.285Z,604
2018-04-23T05:12:11.679Z,636
2018-04-23T05:13:13.074Z,660
2018-04-23T05:14:14.486Z,680
2018-04-23T05:15:15.881Z,704
2018-04-23T05:16:17.283Z,724
2018-04-23T05:17:18.677Z,752
2018-04-23T05:18:20.068Z,764
2018-04-23T05:19:21.459Z,776
2018-04-23T05:20:22.853Z,792
2018-04-23T05:21:24.249Z,820
2018-04-23T05:22:25.652Z,860
2018-04-23T05:23:27.045Z,876
2018-04-23T05:24:28.443Z,904
2018-04-23T05:25:29.836Z,920
2018-04-23T05:26:31.231Z,932
2018-04-23T05:27:32.623Z,924
2018-04-23T05:28:34.017Z,900
2018-04-23T05:29:35.419Z,872
2018-04-23T05:30:36.816Z,852
2018-04-23T05:31:38.208Z,832
2018-04-23T05:32:39.604Z,824
2018-04-23T05:33:40.992Z,828
2018-04-23T05:34:42.388Z,852
2018-04-23T05:35:43.783Z,860
2018-04-23T05:36:45.189Z,872
2018-04-23T05:37:46.583Z,888
2018-04-23T05:38:47.980Z,908
2018-04-23T05:39:49.376Z,916
2018-04-23T05:40:50.774Z,924
2018-04-23T05:41:52.166Z,932
2018-04-23T05:42:53.563Z,924
2018-04-23T05:43:54.958Z,928
2018-04-23T05:44:56.363Z,944
2018-04-23T05:45:57.757Z,952
2018-04-23T05:46:59.148Z,952
2018-04-23T05:48:00.544Z,972
2018-04-23T05:49:01.938Z,988
2018-04-23T05:50:03.337Z,1028
2018-04-23T05:51:04.735Z,1048
2018-04-23T05:52:06.135Z,1032
2018-04-23T05:53:07.634Z,984
2018-04-23T05:54:09.041Z,984
2018-04-23T05:55:10.459Z,1024
2018-04-23T05:56:11.856Z,1060
2018-04-23T05:57:13.281Z,1088
2018-04-23T05:58:14.678Z,1116
2018-04-23T05:59:16.076Z,1144
2018-04-23T06:00:17.472Z,1124
2018-04-23T06:01:18.866Z,1132
2018-04-23T06:02:20.260Z,1156
2018-04-23T06:03:21.656Z,1192
2018-04-23T06:04:23.052Z,1180
2018-04-23T06:05:24.447Z,1164
2018-04-23T06:06:25.845Z,1180
2018-04-23T06:07:27.242Z,1216
2018-04-23T06:08:28.640Z,1212
2018-04-23T06:09:30.033Z,1224
2018-04-23T06:10:31.426Z,1268
2018-04-23T06:11:32.824Z,1320
2018-04-23T06:12:34.218Z,1356
2018-04-23T06:13:35.616Z,1408
2018-04-23T06:14:37.013Z,1468
2018-04-23T06:15:38.410Z,1532
2018-04-23T06:16:39.808Z,1640
2018-04-23T06:17:41.200Z,1700
2018-04-23T06:18:42.594Z,1756
2018-04-23T06:19:44.009Z,1792
2018-04-23T06:20:45.388Z,1824
2018-04-23T06:21:46.789Z,1836
2018-04-23T06:22:48.184Z,1832
2018-04-23T06:23:49.580Z,1812
2018-04-23T06:24:50.974Z,1792
2018-04-23T06:25:52.371Z,1784
2018-04-23T06:26:53.763Z,1844
2018-04-23T06:27:55.165Z,1872
2018-04-23T06:28:56.562Z,1924
2018-04-23T06:29:57.958Z,1940
2018-04-23T06:30:59.359Z,1932
2018-04-23T06:32:00.754Z,1972
2018-04-23T06:33:02.163Z,1964
2018-04-23T06:34:03.558Z,2024
2018-04-23T06:35:04.949Z,2060
2018-04-23T06:36:06.348Z,2144
2018-04-23T06:37:07.771Z,2240
2018-04-23T06:38:09.206Z,2296
2018-04-23T06:39:10.601Z,2336
2018-04-23T06:40:12.013Z,2324
2018-04-23T06:41:13.395Z,2312
2018-04-23T06:42:14.792Z,2264
2018-04-23T06:43:16.192Z,2236
2018-04-23T06:44:17.588Z,2256
2018-04-23T06:45:18.983Z,2340
2018-04-23T06:46:20.387Z,2348
2018-04-23T06:47:21.782Z,2412
2018-04-23T06:48:23.180Z,2376
2018-04-23T06:49:24.576Z,2304
2018-04-23T06:50:25.979Z,2240
2018-04-23T06:51:27.448Z,2196
2018-04-23T06:52:28.841Z,2104
2018-04-23T06:53:30.236Z,2152
2018-04-23T06:54:31.645Z,2072
2018-04-23T06:55:33.043Z,2148
2018-04-23T06:56:34.673Z,2240
2018-04-23T06:57:36.152Z,2248
2018-04-23T06:58:37.560Z,2360
2018-04-23T06:59:39.233Z,2320
2018-04-23T07:00:40.636Z,2256
2018-04-23T07:01:42.030Z,2356
2018-04-23T07:02:43.452Z,2556
2018-04-23T07:03:44.849Z,2588
2018-04-23T07:04:46.382Z,2568
2018-04-23T07:05:47.702Z,2724
2018-04-23T07:06:49.098Z,2876
2018-04-23T07:07:50.494Z,2912
2018-04-23T07:08:51.893Z,2880
2018-04-23T07:09:53.289Z,2724
2018-04-23T07:10:54.711Z,2660
2018-04-23T07:11:56.109Z,2548
2018-04-23T07:12:57.504Z,2480
2018-04-23T07:13:58.899Z,2348
2018-04-23T07:15:00.302Z,2400
2018-04-23T07:16:01.693Z,2424
2018-04-23T07:17:03.089Z,2364
2018-04-23T07:18:04.486Z,2256
2018-04-23T07:19:05.883Z,2264
2018-04-23T07:20:07.282Z,2300
2018-04-23T07:21:08.786Z,2332
2018-04-23T07:22:10.289Z,2404
2018-04-23T07:23:11.687Z,2476
2018-04-23T07:24:13.084Z,2496
2018-04-23T07:25:14.525Z,2380
2018-04-23T07:26:15.922Z,2516
2018-04-23T07:27:17.321Z,2512
2018-04-23T07:28:18.712Z,2576
2018-04-23T07:29:20.170Z,2544
2018-04-23T07:30:21.514Z,2488
2018-04-23T07:31:22.913Z,2504
2018-04-23T07:32:24.350Z,2480
2018-04-23T07:33:25.763Z,2424
2018-04-23T07:34:27.150Z,2552
2018-04-23T07:35:28.540Z,2736
2018-04-23T07:36:29.935Z,2684
2018-04-23T07:37:31.328Z,2744
2018-04-23T07:38:32.728Z,2736
2018-04-23T07:39:34.127Z,2736
2018-04-23T07:40:35.524Z,2512
2018-04-23T07:41:36.920Z,2692
2018-04-23T07:42:38.319Z,2704
2018-04-23T07:43:39.716Z,2744
2018-04-23T07:44:41.111Z,2796
2018-04-23T07:45:42.516Z,2884
2018-04-23T07:46:43.905Z,2804
2018-04-23T07:47:45.304Z,2836
2018-04-23T07:48:46.700Z,2900
2018-04-23T07:49:48.095Z,3016
2018-04-23T07:50:49.495Z,3208
2018-04-23T07:51:50.887Z,3268
2018-04-23T07:52:52.282Z,3280
2018-04-23T07:53:53.680Z,3268
2018-04-23T07:54:55.079Z,3208
2018-04-23T07:55:56.474Z,3252
2018-04-23T07:56:57.874Z,3424
2018-04-23T07:57:59.271Z,3316
2018-04-23T07:59:00.669Z,3376
2018-04-23T08:00:02.083Z,3432
2018-04-23T08:01:03.467Z,3504
2018-04-23T08:02:04.869Z,3620
2018-04-23T08:03:06.268Z,3684
2018-04-23T08:04:07.662Z,3856
2018-04-23T08:05:09.058Z,3960
2018-04-23T08:06:10.453Z,3896
2018-04-23T08:07:11.920Z,4040
2018-04-23T08:08:13.329Z,3952
2018-04-23T08:09:14.747Z,3916
2018-04-23T08:10:16.140Z,4112
2018-04-23T08:11:17.534Z,3924
2018-04-23T08:12:19.040Z,3868
2018-04-23T08:13:20.327Z,4124
2018-04-23T08:14:21.733Z,4632
2018-04-23T08:15:23.120Z,5112
2018-04-23T08:16:24.535Z,4748
2018-04-23T08:17:25.918Z,4872
2018-04-23T08:18:27.316Z,5788
2018-04-23T08:19:28.714Z,5036
2018-04-23T08:20:30.109Z,4420
2018-04-23T08:21:31.507Z,3908
2018-04-23T08:22:32.907Z,4376
2018-04-23T08:23:34.311Z,4032
2018-04-23T08:24:35.702Z,4340
2018-04-23T08:25:37.102Z,4204
2018-04-23T08:26:38.499Z,4236
2018-04-23T08:27:39.896Z,4428
2018-04-23T08:28:41.304Z,5512
2018-04-23T08:29:42.702Z,5076
2018-04-23T08:30:44.102Z,4212
2018-04-23T08:31:45.504Z,4312
2018-04-23T08:32:46.894Z,3808
2018-04-23T08:33:48.299Z,3180
2018-04-23T08:34:49.688Z,4476
2018-04-23T08:35:51.123Z,3628
2018-04-23T08:36:52.524Z,4632
2018-04-23T08:37:53.920Z,6420
2018-04-23T08:38:55.315Z,6360
2018-04-23T08:39:56.712Z,5956
2018-04-23T08:40:58.113Z,5132
2018-04-23T08:41:59.524Z,4684
2018-04-23T08:43:00.922Z,4752
2018-04-23T08:44:02.322Z,4856
2018-04-23T08:45:03.729Z,5264
2018-04-23T08:46:05.128Z,6688
2018-04-23T08:47:06.522Z,5580
2018-04-23T08:48:08.379Z,5264
2018-04-23T08:49:10.089Z,5508
2018-04-23T08:50:12.158Z,6604
2018-04-23T08:51:13.651Z,5444
2018-04-23T08:52:15.454Z,5364
2018-04-23T08:53:16.972Z,5516
2018-04-23T08:54:18.778Z,6308
2018-04-23T08:55:20.440Z,6020
2018-04-23T08:56:22.204Z,5532
2018-04-23T08:57:24.048Z,6220
2018-04-23T08:58:25.416Z,5928
2018-04-23T08:59:26.812Z,7000
2018-04-23T09:00:28.213Z,14500
2018-04-23T09:01:29.624Z,7908
2018-04-23T09:02:31.005Z,8284
2018-04-23T09:03:32.402Z,8608
2018-04-23T09:04:33.800Z,6988
2018-04-23T09:05:35.241Z,7184
2018-04-23T09:06:36.654Z,7712
2018-04-23T09:07:38.055Z,8116
2018-04-23T09:08:39.448Z,7756
2018-04-23T09:09:40.864Z,7700
2018-04-23T09:10:42.262Z,7332
2018-04-23T09:11:43.665Z,7680
2018-04-23T09:12:45.072Z,7932
2018-04-23T09:13:46.483Z,7788
2018-04-23T09:14:47.876Z,7664
2018-04-23T09:15:49.289Z,7604
2018-04-23T09:16:50.696Z,7552
2018-04-23T09:17:52.105Z,7736
2018-04-23T09:18:53.500Z,7976
2018-04-23T09:19:54.902Z,8460
2018-04-23T09:20:56.308Z,8708
2018-04-23T09:21:57.725Z,4972
2018-04-23T09:22:59.108Z,8784
2018-04-23T09:24:00.504Z,8840
2018-04-23T09:25:01.904Z,5548
2018-04-23T09:26:03.319Z,4872
2018-04-23T09:27:04.714Z,5352
2018-04-23T09:28:06.118Z,6800
2018-04-23T09:29:07.517Z,5800
2018-04-23T09:30:08.916Z,4740
2018-04-23T09:31:10.329Z,4912
2018-04-23T09:32:11.826Z,6672
2018-04-23T09:33:13.215Z,8660
2018-04-23T09:34:14.619Z,10292
2018-04-23T09:35:16.071Z,9380
2018-04-23T09:36:17.488Z,5728
2018-04-23T09:37:18.880Z,10508
2018-04-23T09:38:20.293Z,7004
2018-04-23T09:39:21.698Z,7720
2018-04-23T09:40:23.097Z,5792
2018-04-23T09:41:24.515Z,5032
2018-04-23T09:42:25.913Z,6524
2018-04-23T09:43:27.309Z,9912
2018-04-23T09:44:28.766Z,10932
2018-04-23T09:45:30.130Z,7868
2018-04-23T09:46:31.538Z,6012
2018-04-23T09:47:32.939Z,10244
2018-04-23T09:48:34.339Z,4936
2018-04-23T09:49:35.739Z,8264
2018-04-23T09:50:37.139Z,10108
2018-04-23T09:51:38.546Z,5252
2018-04-23T09:52:39.943Z,4744
2018-04-23T09:53:41.390Z,5104
2018-04-23T09:54:42.802Z,9604
2018-04-23T09:55:44.222Z,10520
2018-04-23T09:56:45.653Z,11080
2018-04-23T09:57:47.034Z,11976
2018-04-23T09:58:48.437Z,6492
2018-04-23T09:59:49.856Z,6164
2018-04-23T10:00:51.294Z,5260
2018-04-23T10:01:52.708Z,4476
2018-04-23T10:02:54.121Z,4108
2018-04-23T10:03:55.523Z,5084
2018-04-23T10:04:56.928Z,8212
2018-04-23T10:05:58.339Z,10200
2018-04-23T10:06:59.734Z,5840
2018-04-23T10:08:01.144Z,4976
2018-04-23T10:09:02.549Z,5504
2018-04-23T10:10:03.985Z,7096
2018-04-23T10:11:05.389Z,5884
2018-04-23T10:12:06.834Z,11652
2018-04-23T10:13:08.231Z,11288
2018-04-23T10:14:09.649Z,10760
2018-04-23T10:15:11.071Z,11200
2018-04-23T10:16:12.474Z,12120
2018-04-23T10:17:13.938Z,11884
2018-04-23T10:18:15.383Z,11424
2018-04-23T10:19:16.790Z,13588
2018-04-23T10:20:18.200Z,4996
2018-04-23T10:21:19.606Z,13524
2018-04-23T10:22:21.012Z,13972
2018-04-23T10:23:22.431Z,14568
2018-04-23T10:24:23.839Z,14420
2018-04-23T10:25:25.252Z,15544
2018-04-23T10:26:26.655Z,10800
2018-04-23T10:27:28.051Z,6532
2018-04-23T10:28:29.457Z,18016
2018-04-23T10:29:30.855Z,19904
2018-04-23T10:30:32.262Z,21376
2018-04-23T10:31:33.677Z,24128
2018-04-23T10:32:35.083Z,26496
2018-04-23T10:33:36.528Z,28576
2018-04-23T10:34:37.930Z,30080
2018-04-23T10:35:39.339Z,31392
2018-04-23T10:36:40.739Z,32032
2018-04-23T10:37:42.140Z,32448
2018-04-23T10:38:43.545Z,32608
2018-04-23T10:39:44.966Z,32000
2018-04-23T10:40:46.367Z,20448
2018-04-23T10:41:47.773Z,32384
2018-04-23T10:42:49.179Z,32288
2018-04-23T10:43:50.576Z,34144
2018-04-23T10:44:51.978Z,10668
2018-04-23T10:45:53.388Z,32128
2018-04-23T10:46:54.795Z,31904
2018-04-23T10:47:56.192Z,18976
2018-04-23T10:48:57.597Z,24096
2018-04-23T10:49:58.997Z,6496
2018-04-23T10:51:00.400Z,7728
2018-04-23T10:52:01.797Z,9328
2018-04-23T10:53:03.201Z,25760
2018-04-23T10:54:04.606Z,26208
2018-04-23T10:55:06.006Z,24640
2018-04-23T10:56:07.407Z,25408
2018-04-23T10:57:08.814Z,25056
2018-04-23T10:58:10.216Z,8908
2018-04-23T10:59:11.619Z,7360
2018-04-23T11:00:13.024Z,22432
2018-04-23T11:01:14.428Z,22240
2018-04-23T11:02:15.835Z,21536
2018-04-23T11:03:17.250Z,20704
2018-04-23T11:04:18.654Z,17696
2018-04-23T11:05:20.059Z,19072
2018-04-23T11:06:21.462Z,19904
2018-04-23T11:07:22.863Z,8904
2018-04-23T11:08:24.271Z,8448
2018-04-23T11:09:25.671Z,5412
2018-04-23T11:10:27.069Z,5136
2018-04-23T11:11:28.473Z,6752
2018-04-23T11:12:29.873Z,6968
2018-04-23T11:13:31.278Z,14160
2018-04-23T11:14:32.679Z,19424
2018-04-23T11:15:34.081Z,20256
2018-04-23T11:16:35.486Z,18144
2018-04-23T11:17:36.886Z,16864
2018-04-23T11:18:38.289Z,20416
2018-04-23T11:19:39.691Z,16480
2018-04-23T11:20:41.096Z,18304
2018-04-23T11:21:42.494Z,21568
2018-04-23T11:22:43.897Z,20768
2018-04-23T11:23:45.297Z,12472
2018-04-23T11:24:46.712Z,20704
2018-04-23T11:25:48.102Z,20960
2018-04-23T11:26:49.508Z,21824
2018-04-23T11:27:50.909Z,23648
2018-04-23T11:28:52.311Z,11172
2018-04-23T11:29:53.716Z,11020
2018-04-23T11:30:55.115Z,6832
2018-04-23T11:31:56.512Z,6492
2018-04-23T11:32:57.916Z,6420
2018-04-23T11:33:59.315Z,22912
2018-04-23T11:35:00.721Z,22752
2018-04-23T11:36:02.124Z,22752
2018-04-23T11:37:03.523Z,22880
2018-04-23T11:38:04.920Z,8212
2018-04-23T11:39:06.322Z,10100
2018-04-23T11:40:07.726Z,18048
2018-04-23T11:41:09.127Z,22560
2018-04-23T11:42:10.529Z,20832
2018-04-23T11:43:11.933Z,21856
2018-04-23T11:44:13.333Z,21728
2018-04-23T11:45:14.739Z,21952
2018-04-23T11:46:16.142Z,22528
2018-04-23T11:47:17.545Z,23008
2018-04-23T11:48:19.045Z,22368
2018-04-23T11:49:20.445Z,22496
2018-04-23T11:50:21.850Z,22432
2018-04-23T11:51:23.252Z,22432
2018-04-23T11:52:24.655Z,22624
2018-04-23T11:53:26.054Z,22688
2018-04-23T11:54:27.456Z,22560
2018-04-23T11:55:28.863Z,5660
2018-04-23T11:56:30.268Z,22816
2018-04-23T11:57:31.672Z,4964
2018-04-23T11:58:33.076Z,23136
2018-04-23T11:59:34.479Z,22656
2018-04-23T12:00:35.880Z,21120
2018-04-23T12:01:37.289Z,24000
2018-04-23T12:02:38.684Z,24992
2018-04-23T12:03:40.091Z,20672
2018-04-23T12:04:41.492Z,24000
2018-04-23T12:05:42.901Z,23264
2018-04-23T12:06:44.293Z,22560
2018-04-23T12:07:45.698Z,23232
2018-04-23T12:08:47.097Z,23200
2018-04-23T12:09:48.502Z,23072
2018-04-23T12:10:49.954Z,22528
2018-04-23T12:11:51.315Z,23072
2018-04-23T12:12:52.713Z,22816
2018-04-23T12:13:54.117Z,22848
2018-04-23T12:14:55.525Z,22688
2018-04-23T12:15:56.921Z,23104
2018-04-23T12:16:58.327Z,16768
2018-04-23T12:17:59.727Z,15136
2018-04-23T12:19:01.133Z,22880
2018-04-23T12:20:02.536Z,7512
2018-04-23T12:21:03.938Z,21888
2018-04-23T12:22:05.340Z,22912
2018-04-23T12:23:06.744Z,22144
2018-04-23T12:24:08.148Z,22912
2018-04-23T12:25:09.548Z,18240
2018-04-23T12:26:10.952Z,23456
2018-04-23T12:27:12.362Z,14976
2018-04-23T12:28:13.761Z,5352
2018-04-23T12:29:15.168Z,10848
2018-04-23T12:30:16.568Z,20160
2018-04-23T12:31:17.975Z,23072
2018-04-23T12:32:19.373Z,21728
2018-04-23T12:33:20.776Z,23200
2018-04-23T12:34:22.200Z,18432
2018-04-23T12:35:23.605Z,5964
2018-04-23T12:36:25.005Z,18816
2018-04-23T12:37:26.409Z,21312
2018-04-23T12:38:27.810Z,22368
2018-04-23T12:39:29.213Z,22304
2018-04-23T12:40:30.623Z,22400
2018-04-23T12:41:32.171Z,22656
2018-04-23T12:42:33.575Z,23008
2018-04-23T12:43:34.972Z,7480
2018-04-23T12:44:36.376Z,15016
2018-04-23T12:45:37.777Z,18048
2018-04-23T12:46:39.197Z,5944
2018-04-23T12:47:40.591Z,22752
2018-04-23T12:48:41.994Z,22464
2018-04-23T12:49:43.506Z,22144
2018-04-23T12:50:44.908Z,22560
2018-04-23T12:51:46.307Z,8008
2018-04-23T12:52:47.717Z,22208
2018-04-23T12:53:49.114Z,22208
2018-04-23T12:54:50.516Z,22688
2018-04-23T12:55:51.930Z,21984
2018-04-23T12:56:53.321Z,22656
2018-04-23T12:57:54.728Z,21792
2018-04-23T12:58:56.132Z,22304
2018-04-23T12:59:57.533Z,21120
2018-04-23T13:00:59.137Z,21472
2018-04-23T13:02:00.540Z,21344
2018-04-23T13:03:01.973Z,21728
2018-04-23T13:04:03.345Z,22240
2018-04-23T13:05:04.750Z,21376
2018-04-23T13:06:06.152Z,18592
2018-04-23T13:07:07.556Z,19968
2018-04-23T13:08:08.960Z,21088
2018-04-23T13:09:10.393Z,21312
2018-04-23T13:10:11.798Z,18560
2018-04-23T13:11:13.202Z,21088
2018-04-23T13:12:14.612Z,20896
2018-04-23T13:13:16.009Z,20448
2018-04-23T13:14:17.409Z,20864
2018-04-23T13:15:18.812Z,20896
2018-04-23T13:16:20.219Z,5364
2018-04-23T13:17:21.626Z,4840
2018-04-23T13:18:23.038Z,22016
2018-04-23T13:19:24.528Z,20704
2018-04-23T13:20:25.934Z,20608
2018-04-23T13:21:27.337Z,20096
2018-04-23T13:22:28.745Z,16032
2018-04-23T13:23:30.149Z,14116
2018-04-23T13:24:31.552Z,5800
2018-04-23T13:25:32.982Z,4900
2018-04-23T13:26:34.385Z,5080
2018-04-23T13:27:35.792Z,20384
2018-04-23T13:28:37.188Z,20384
2018-04-23T13:29:38.593Z,19808
2018-04-23T13:30:40.004Z,18240
2018-04-23T13:31:41.401Z,18496
2018-04-23T13:32:42.802Z,9612
2018-04-23T13:33:44.204Z,4724
2018-04-23T13:34:45.605Z,5440
2018-04-23T13:35:47.011Z,18624
2018-04-23T13:36:48.429Z,19584
2018-04-23T13:37:49.822Z,18944
2018-04-23T13:38:51.224Z,18048
2018-04-23T13:39:52.628Z,18304
2018-04-23T13:40:54.032Z,18208
2018-04-23T13:41:55.435Z,18144
2018-04-23T13:42:56.838Z,17824
2018-04-23T13:43:58.248Z,17568
2018-04-23T13:44:59.645Z,17632
2018-04-23T13:46:01.048Z,17376
2018-04-23T13:47:02.459Z,16960
2018-04-23T13:48:03.865Z,17568
2018-04-23T13:49:05.268Z,17312
2018-04-23T13:50:06.725Z,16768
2018-04-23T13:51:08.072Z,16992
2018-04-23T13:52:09.476Z,16896
2018-04-23T13:53:10.884Z,16832
2018-04-23T13:54:12.283Z,16736
2018-04-23T13:55:13.687Z,16160
2018-04-23T13:56:15.116Z,15616
2018-04-23T13:57:16.487Z,16480
2018-04-23T13:58:17.891Z,16128
2018-04-23T13:59:19.295Z,16544